Hovedside
METAR-TAF:

METAR-TAF

Lufthavner :

Mosjøen lufthavn. Kjærstad

Mosjøen, Norge

breddegrad: 65-48N, lengdegrad: 013-08E, høyde over havet: 70 m

Gjeldene værobservasjon

Denne rapporten ble laget for 21 minutter siden, klokken 04:20 UTC
Vind 2 kt fra Sør-sørvest
Temperatur -3°C
Luftfuktighet 93%
Trykk 1009 hPa
Sikt: 0400 m
underkjølt tåke

METAR: ENMS 140420Z 20002KT 0400 FZFG NSC M03/M04 Q1009 RMK WIND 412FT 00000KT

Tid: 06:41 (04:41 UTC)


TAF: fraværende

Værobservasjoner og værvarsel for over 4000 flyplasser (METAR- og TAF-rapporter).

Tilgjengelige stasjoner er representert av de røde og gule prikkene på kartet.

Hold musepekeren over prikken for å se navnet på stasjonen.

Klikk så for å se værobservasjoner og -varsler.

For å forandre kartet kan du klikke på den grønne knappen med svart kryss for å zoome inn, på den grønne knappen med strek for å zoome ut, eller på de grønne pilene for å se tilstøtende kart.


METAR-TAF: